Anita, Pennsylvania
Current Conditions -  °F | °C
As of 1:53 AM on Monday 24 Nov 2014 (Local Time) from KDUJ Reporting Station
Overcast Overcast  
Wind Chill: 44°   Ceiling: 700
Heat Index: 49°   Visibility: 10mi
Dew Point: 46°   Wind: 14mph
Humidity: 90%   Direction: 140°SE
Pressure: 29.5"   Gusts: 29mph
Location:  41°N, 78.96°W
Report Text: KDUJ 240653Z AUTO 14012G25KT 110V180 10SM BKN007 OVC012 09/08 A2950 RMK AO2 RAE42 CIG 005V010 SLP989 P0014 T00940078
Loading
Personal Weather Stations






























Interactive Weather Map New forecast layout! Learn more

10-Day Weather Forecast

Advertisements
Track Severe Weather on mobile